createdAt,value
2022-08-07T00:02:41.198Z,5.90
2022-08-07T00:05:04.028Z,2.13
2022-08-07T00:07:40.891Z,4.43
2022-08-07T00:10:26.580Z,2.40
2022-08-07T00:13:01.265Z,1.80
2022-08-07T00:15:37.812Z,2.90
2022-08-07T00:18:19.647Z,2.10
2022-08-07T00:20:50.395Z,1.60
2022-08-07T00:23:21.065Z,4.70
2022-08-07T00:25:58.944Z,1.80
2022-08-07T00:28:33.367Z,2.00
2022-08-07T00:31:06.249Z,2.27
2022-08-07T00:33:43.170Z,3.53
2022-08-07T00:36:16.926Z,1.73
2022-08-07T00:38:45.281Z,5.10
2022-08-07T00:41:14.722Z,2.50
2022-08-07T00:44:01.990Z,3.33
2022-08-07T00:46:33.951Z,1.90
2022-08-07T00:49:03.723Z,2.50
2022-08-07T00:51:58.150Z,1.93
2022-08-07T00:54:22.270Z,5.43
2022-08-07T00:56:52.162Z,2.07
2022-08-07T00:59:35.232Z,2.07
2022-08-07T01:02:09.005Z,2.30
2022-08-07T01:04:50.662Z,1.73
2022-08-07T01:07:22.345Z,1.37
2022-08-07T01:10:06.557Z,3.03
2022-08-07T01:12:53.253Z,1.07
2022-08-07T01:16:00.484Z,4.57
2022-08-07T01:18:16.952Z,1.73
2022-08-07T01:20:59.500Z,1.20
2022-08-07T01:23:35.383Z,2.33
2022-08-07T01:26:12.252Z,2.07
2022-08-07T01:28:46.326Z,2.17
2022-08-07T01:31:19.996Z,0.80
2022-08-07T01:33:55.383Z,2.03
2022-08-07T01:36:34.062Z,2.03
2022-08-07T01:39:10.692Z,2.03
2022-08-07T01:42:07.403Z,1.83
2022-08-07T01:44:29.381Z,2.07
2022-08-07T01:47:01.164Z,2.63
2022-08-07T01:49:46.041Z,5.10
2022-08-07T01:52:25.069Z,2.67
2022-08-07T01:54:58.905Z,2.23
2022-08-07T01:58:01.572Z,4.63
2022-08-07T02:00:28.571Z,3.27
2022-08-07T02:03:18.298Z,1.57
2022-08-07T02:06:00.072Z,1.80
2022-08-07T02:08:35.496Z,2.13
2022-08-07T02:11:07.144Z,2.03
2022-08-07T02:13:57.478Z,2.70
2022-08-07T02:16:33.649Z,2.40
2022-08-07T02:19:05.640Z,1.80
2022-08-07T02:21:58.898Z,3.10
2022-08-07T02:24:30.095Z,1.80
2022-08-07T02:27:02.802Z,4.13
2022-08-07T02:29:34.496Z,4.50
2022-08-07T02:32:14.116Z,1.90
2022-08-07T02:34:48.697Z,2.40
2022-08-07T02:37:21.699Z,5.70
2022-08-07T02:40:02.167Z,9.23
2022-08-07T02:42:43.772Z,2.13
2022-08-07T02:45:59.117Z,2.60
2022-08-07T02:48:05.221Z,2.23
2022-08-07T02:50:51.409Z,2.03
2022-08-07T02:53:27.274Z,2.47
2022-08-07T02:56:03.235Z,3.70
2022-08-07T02:58:39.833Z,3.90
2022-08-07T03:01:19.064Z,4.03
2022-08-07T03:04:07.725Z,3.40
2022-08-07T03:06:44.780Z,2.70
2022-08-07T03:09:43.345Z,2.70
2022-08-07T03:12:05.473Z,2.37
2022-08-07T03:14:37.181Z,2.60
2022-08-07T03:17:06.668Z,3.40
2022-08-07T03:19:37.584Z,3.07
2022-08-07T03:22:07.936Z,2.87
2022-08-07T03:24:48.493Z,2.53
2022-08-07T03:27:29.951Z,4.70
2022-08-07T03:30:03.764Z,3.87
2022-08-07T03:32:39.753Z,2.33
2022-08-07T03:35:26.295Z,2.10
2022-08-07T03:37:58.595Z,2.03
2022-08-07T03:40:35.991Z,2.83
2022-08-07T03:43:10.092Z,1.63
2022-08-07T03:45:47.877Z,2.33
2022-08-07T03:48:17.330Z,2.30
2022-08-07T03:50:56.214Z,3.20
2022-08-07T03:54:00.785Z,2.83
2022-08-07T03:56:33.060Z,5.33
2022-08-07T03:59:12.766Z,1.70
2022-08-07T04:01:46.279Z,7.50
2022-08-07T04:04:18.231Z,2.53
2022-08-07T04:06:50.910Z,3.30
2022-08-07T04:09:23.284Z,3.07
2022-08-07T04:12:20.804Z,2.63
2022-08-07T04:14:45.934Z,4.07
2022-08-07T04:17:20.987Z,3.17
2022-08-07T04:19:54.382Z,2.37
2022-08-07T04:22:28.494Z,2.33
2022-08-07T04:25:01.010Z,3.70
2022-08-07T04:27:35.795Z,7.27
2022-08-07T04:30:21.052Z,2.10
2022-08-07T04:32:58.226Z,5.00
2022-08-07T04:35:27.425Z,3.47
2022-08-07T04:38:07.931Z,1.60
2022-08-07T04:40:36.525Z,3.10
2022-08-07T04:44:10.452Z,2.37
2022-08-07T04:46:34.565Z,3.53
2022-08-07T04:49:24.709Z,4.07
2022-08-07T04:52:03.978Z,3.43
2022-08-07T04:54:41.831Z,4.03
2022-08-07T04:58:16.753Z,3.63
2022-08-07T05:00:41.856Z,3.00
2022-08-07T05:04:00.297Z,3.20
2022-08-07T05:06:20.490Z,6.40
2022-08-07T05:09:03.043Z,4.40
2022-08-07T05:11:57.262Z,3.63
2022-08-07T05:14:53.406Z,4.10
2022-08-07T05:17:50.132Z,2.33
2022-08-07T05:20:18.806Z,2.43
2022-08-07T05:22:52.815Z,3.33
2022-08-07T05:25:25.914Z,2.93
2022-08-07T05:28:20.852Z,2.73
2022-08-07T05:30:54.254Z,2.93
2022-08-07T05:33:24.792Z,6.70
2022-08-07T05:35:56.863Z,5.13
2022-08-07T05:39:01.264Z,2.50
2022-08-07T05:41:18.442Z,4.33
2022-08-07T05:44:08.344Z,6.13
2022-08-07T05:46:43.138Z,4.63
2022-08-07T05:49:14.338Z,5.00
2022-08-07T05:51:46.619Z,4.10
2022-08-07T05:54:31.178Z,4.67
2022-08-07T05:57:10.246Z,3.50
2022-08-07T05:59:58.061Z,3.10
2022-08-07T06:02:32.613Z,4.03
2022-08-07T06:05:06.839Z,3.97
2022-08-07T06:08:08.998Z,6.97
2022-08-07T06:10:30.082Z,8.30
2022-08-07T06:12:58.655Z,5.50
2022-08-07T06:15:40.425Z,3.23
2022-08-07T06:18:14.353Z,3.43
2022-08-07T06:20:50.511Z,3.77
2022-08-07T06:24:36.975Z,4.70
2022-08-07T06:26:27.567Z,3.23
2022-08-07T06:29:01.173Z,7.47
2022-08-07T06:31:46.996Z,3.20
2022-08-07T06:34:19.647Z,3.90
2022-08-07T06:36:51.876Z,1.60
2022-08-07T06:40:17.435Z,1.97
2022-08-07T06:42:33.115Z,2.63
2022-08-07T06:45:06.645Z,2.87
2022-08-07T06:47:56.934Z,2.73
2022-08-07T06:50:27.551Z,1.83
2022-08-07T06:53:04.209Z,2.77
2022-08-07T06:55:53.647Z,5.23
2022-08-07T06:58:27.552Z,1.80
2022-08-07T07:00:59.512Z,2.97
2022-08-07T07:03:48.852Z,5.80
2022-08-07T07:06:26.064Z,1.83
2022-08-07T07:08:54.797Z,1.87
2022-08-07T07:12:08.256Z,1.77
2022-08-07T07:14:19.196Z,3.40
2022-08-07T07:16:55.692Z,4.87
2022-08-07T07:19:55.087Z,2.53
2022-08-07T07:22:36.879Z,4.77
2022-08-07T07:26:33.238Z,1.20
2022-08-07T07:28:29.762Z,5.40
2022-08-07T07:31:12.087Z,2.63
2022-08-07T07:33:56.414Z,1.40
2022-08-07T07:36:32.177Z,6.23
2022-08-07T07:39:04.473Z,3.17
2022-08-07T07:41:50.341Z,1.83
2022-08-07T07:44:25.785Z,2.90
2022-08-07T07:54:22.112Z,2.57
2022-08-07T07:56:57.928Z,3.17
2022-08-07T07:59:52.931Z,3.73
2022-08-07T08:02:34.083Z,1.50
2022-08-07T08:05:11.365Z,2.27
2022-08-07T08:07:51.483Z,6.53
2022-08-07T08:10:35.554Z,1.90
2022-08-07T08:13:10.479Z,3.47
2022-08-07T08:15:58.932Z,2.17
2022-08-07T08:18:30.514Z,3.90
2022-08-07T08:21:03.193Z,2.03
2022-08-07T08:23:51.927Z,2.63
2022-08-07T08:26:40.387Z,1.70
2022-08-07T08:29:10.864Z,3.70
2022-08-07T08:31:58.759Z,3.00
2022-08-07T08:34:33.432Z,4.40
2022-08-07T08:37:04.356Z,3.30
2022-08-07T08:39:54.876Z,4.80
2022-08-07T08:42:40.410Z,6.80
2022-08-07T08:45:22.416Z,3.30
2022-08-07T08:48:10.746Z,1.13
2022-08-07T08:50:46.026Z,3.43
2022-08-07T08:53:25.717Z,2.10
2022-08-07T08:56:04.013Z,3.00
2022-08-07T08:58:47.552Z,3.77
2022-08-07T09:01:29.943Z,2.00
2022-08-07T09:04:26.086Z,2.73
2022-08-07T09:07:07.137Z,2.33
2022-08-07T09:09:59.624Z,2.30
2022-08-07T09:12:53.216Z,2.50
2022-08-07T09:16:20.482Z,4.10
2022-08-07T09:19:07.138Z,4.90
2022-08-07T09:24:28.740Z,3.47
2022-08-07T09:25:17.414Z,3.40
2022-08-07T09:28:02.027Z,2.60
2022-08-07T09:31:05.217Z,3.03
2022-08-07T09:34:00.101Z,2.97
2022-08-07T09:36:37.293Z,2.70
2022-08-07T09:39:54.984Z,2.90
2022-08-07T09:42:45.592Z,2.80
2022-08-07T09:47:50.786Z,2.60
2022-08-07T09:48:29.726Z,2.53
2022-08-07T09:52:16.253Z,1.57
2022-08-07T09:54:16.590Z,5.83
2022-08-07T09:57:30.954Z,2.60
2022-08-07T10:00:14.860Z,2.70
2022-08-07T10:04:03.182Z,3.17
2022-08-07T10:06:53.897Z,2.73
2022-08-07T10:10:00.935Z,1.57
2022-08-07T10:12:59.317Z,1.67
2022-08-07T10:15:55.599Z,1.70
2022-08-07T10:19:17.709Z,1.70
2022-08-07T10:22:15.404Z,2.17
2022-08-07T10:25:22.881Z,4.43
2022-08-07T10:28:17.805Z,3.53
2022-08-07T10:31:10.984Z,2.03
2022-08-07T10:34:15.365Z,2.80
2022-08-07T10:37:12.585Z,4.00
2022-08-07T10:40:09.083Z,2.00
2022-08-07T10:42:43.843Z,3.40
2022-08-07T10:45:57.503Z,1.90
2022-08-07T10:48:48.540Z,4.17
2022-08-07T10:52:01.728Z,1.97
2022-08-07T10:54:22.606Z,1.63
2022-08-07T10:57:10.548Z,3.50
2022-08-07T11:00:03.269Z,3.50
2022-08-07T11:02:41.269Z,3.30
2022-08-07T11:05:35.867Z,2.33
2022-08-07T11:08:46.976Z,2.93
2022-08-07T11:11:22.219Z,2.00
2022-08-07T11:14:43.662Z,2.30
2022-08-07T11:16:56.783Z,2.83
2022-08-07T11:19:41.078Z,1.67
2022-08-07T11:22:26.468Z,1.80
2022-08-07T11:25:12.084Z,1.93
2022-08-07T11:28:01.809Z,1.93
2022-08-07T11:30:43.924Z,4.80
2022-08-07T11:33:53.750Z,1.40
2022-08-07T11:36:35.585Z,2.53
2022-08-07T11:39:20.686Z,3.00
2022-08-07T11:42:04.316Z,2.43
2022-08-07T11:44:52.508Z,2.27
2022-08-07T11:47:59.196Z,2.23
2022-08-07T11:50:57.242Z,1.67
2022-08-07T11:54:01.462Z,1.70
2022-08-07T11:56:53.132Z,4.83
2022-08-07T12:00:12.505Z,2.33
2022-08-07T12:03:41.377Z,2.07
2022-08-07T12:06:37.878Z,3.87
2022-08-07T12:09:20.120Z,2.27
2022-08-07T12:12:10.647Z,2.43
2022-08-07T12:14:55.426Z,2.30
2022-08-07T12:17:59.447Z,1.50
2022-08-07T12:20:36.411Z,2.50
2022-08-07T12:24:04.951Z,2.00
2022-08-07T12:26:29.793Z,1.97
2022-08-07T12:29:11.271Z,3.80
2022-08-07T12:32:01.646Z,2.50
2022-08-07T12:34:40.258Z,2.10
2022-08-07T12:37:16.790Z,5.60
2022-08-07T12:39:55.088Z,1.73
2022-08-07T12:42:31.851Z,2.17
2022-08-07T12:45:10.109Z,1.53
2022-08-07T12:47:49.435Z,1.83
2022-08-07T12:50:39.213Z,1.98
2022-08-07T12:53:21.919Z,2.53
2022-08-07T12:56:04.142Z,2.20
2022-08-07T12:58:43.017Z,1.75
2022-08-07T13:01:40.718Z,3.00
2022-08-07T13:04:34.981Z,2.70
2022-08-07T13:08:14.624Z,3.05
2022-08-07T13:11:04.224Z,3.50
2022-08-07T13:13:50.346Z,1.58
2022-08-07T13:16:32.690Z,3.00
2022-08-07T13:19:35.206Z,1.92
2022-08-07T13:22:27.807Z,2.70
2022-08-07T13:25:05.936Z,1.92
2022-08-07T13:28:12.603Z,4.57
2022-08-07T13:30:41.425Z,2.88
2022-08-07T13:34:32.661Z,2.17
2022-08-07T13:36:25.718Z,2.15
2022-08-07T13:39:05.033Z,3.15
2022-08-07T13:41:47.593Z,4.78
2022-08-07T13:44:25.999Z,2.22
2022-08-07T13:47:00.927Z,1.38
2022-08-07T13:50:33.660Z,1.35
2022-08-07T13:52:39.589Z,1.65
2022-08-07T13:55:19.475Z,2.05
2022-08-07T13:58:28.180Z,2.72
2022-08-07T14:01:07.986Z,2.70
2022-08-07T14:04:07.370Z,1.42
2022-08-07T14:06:35.479Z,1.63
2022-08-07T14:09:06.761Z,1.40
2022-08-07T14:12:00.152Z,2.50
2022-08-07T14:14:35.608Z,4.30
2022-08-07T14:17:32.043Z,3.17
2022-08-07T14:20:41.091Z,1.30
2022-08-07T14:22:54.910Z,5.72
2022-08-07T14:25:39.315Z,2.55
2022-08-07T14:28:19.185Z,2.45
2022-08-07T14:30:52.211Z,1.73
2022-08-07T14:33:23.635Z,3.03
2022-08-07T14:35:58.518Z,5.63
2022-08-07T14:38:33.318Z,1.40
2022-08-07T14:41:14.829Z,1.67
2022-08-07T14:43:57.491Z,2.60
2022-08-07T14:52:28.027Z,2.38
2022-08-07T14:55:00.371Z,1.60
2022-08-07T14:57:54.729Z,2.20
2022-08-07T15:00:31.952Z,2.80
2022-08-07T15:06:03.739Z,2.70
2022-08-07T15:08:50.083Z,2.50
2022-08-07T15:11:53.849Z,6.13
2022-08-07T15:14:25.401Z,1.83
2022-08-07T15:17:04.192Z,1.63
2022-08-07T15:22:33.470Z,2.03
2022-08-07T15:25:19.340Z,2.83
2022-08-07T15:28:35.117Z,1.85
2022-08-07T15:31:04.922Z,1.60
2022-08-07T15:33:36.818Z,1.77
2022-08-07T15:36:09.100Z,1.52
2022-08-07T15:38:51.391Z,1.40
2022-08-07T15:42:43.702Z,2.97
2022-08-07T15:44:24.040Z,1.58
2022-08-07T15:47:08.618Z,1.55
2022-08-07T15:52:31.442Z,2.38
2022-08-07T15:55:11.589Z,3.53
2022-08-07T15:57:48.675Z,2.45
2022-08-07T16:00:31.469Z,3.90
2022-08-07T16:03:21.436Z,2.58
2022-08-07T16:05:57.871Z,2.10
2022-08-07T16:08:37.855Z,2.50
2022-08-07T16:11:26.902Z,2.65
2022-08-07T16:14:09.054Z,2.30
2022-08-07T16:17:15.457Z,5.53
2022-08-07T16:20:33.783Z,2.07
2022-08-07T16:23:53.969Z,1.80
2022-08-07T16:26:59.559Z,1.80
2022-08-07T16:30:11.639Z,2.07
2022-08-07T16:32:54.645Z,2.00
2022-08-07T16:35:58.469Z,5.80
2022-08-07T16:39:01.412Z,2.00
2022-08-07T16:42:28.944Z,1.67
2022-08-07T16:46:40.521Z,2.77
2022-08-07T16:49:04.013Z,1.83
2022-08-07T16:52:11.371Z,2.80
2022-08-07T16:55:11.429Z,2.03
2022-08-07T16:58:03.741Z,1.73
2022-08-07T17:00:45.755Z,4.57
2022-08-07T17:03:57.791Z,2.73
2022-08-07T17:06:57.986Z,3.30
2022-08-07T17:10:07.790Z,1.97
2022-08-07T17:12:44.414Z,2.80
2022-08-07T17:15:44.573Z,2.27
2022-08-07T17:18:29.134Z,2.40
2022-08-07T17:20:57.781Z,1.97
2022-08-07T17:23:44.681Z,3.97
2022-08-07T17:26:29.957Z,1.53
2022-08-07T17:30:15.929Z,3.07
2022-08-07T17:32:49.504Z,1.77
2022-08-07T17:35:51.776Z,2.50
2022-08-07T17:38:33.469Z,2.83
2022-08-07T17:42:04.633Z,2.43
2022-08-07T17:44:34.000Z,5.20
2022-08-07T17:47:37.739Z,1.40
2022-08-07T17:50:16.673Z,2.30
2022-08-07T17:52:58.973Z,3.00
2022-08-07T17:56:00.340Z,1.70
2022-08-07T17:58:46.295Z,1.77
2022-08-07T18:01:28.955Z,1.93
2022-08-07T18:04:22.486Z,2.57
2022-08-07T18:07:21.027Z,2.50
2022-08-07T18:10:05.806Z,3.07
2022-08-07T18:13:06.748Z,2.63
2022-08-07T18:16:00.167Z,3.70
2022-08-07T18:21:01.685Z,2.27
2022-08-07T18:21:51.900Z,3.63
2022-08-07T18:24:33.733Z,2.73
2022-08-07T18:27:38.451Z,2.53
2022-08-07T18:30:32.456Z,5.70
2022-08-07T18:34:37.918Z,1.83
2022-08-07T18:38:55.822Z,1.90
2022-08-07T18:40:42.453Z,3.33
2022-08-07T18:43:43.069Z,1.47
2022-08-07T18:46:27.520Z,3.13
2022-08-07T18:50:30.173Z,1.93
2022-08-07T18:52:40.834Z,2.67
2022-08-07T18:55:40.761Z,4.47
2022-08-07T18:58:55.822Z,2.23
2022-08-07T19:02:31.851Z,2.33
2022-08-07T19:04:54.711Z,3.73
2022-08-07T19:07:52.889Z,2.67
2022-08-07T19:10:31.871Z,2.73
2022-08-07T19:13:26.613Z,2.37
2022-08-07T19:17:00.646Z,1.90
2022-08-07T19:19:01.185Z,3.57
2022-08-07T19:21:56.967Z,6.67
2022-08-07T19:24:43.547Z,3.70
2022-08-07T19:28:30.898Z,5.27
2022-08-07T19:31:06.375Z,3.30
2022-08-07T19:33:08.224Z,4.30
2022-08-07T19:35:45.076Z,3.93
2022-08-07T19:38:20.664Z,4.53
2022-08-07T19:40:53.304Z,3.03
2022-08-07T19:43:43.387Z,2.40
2022-08-07T19:46:19.974Z,2.17
2022-08-07T19:48:57.106Z,2.07
2022-08-07T19:51:53.232Z,2.63
2022-08-07T19:54:34.121Z,3.93
2022-08-07T19:58:04.780Z,2.93
2022-08-07T20:00:10.075Z,2.20
2022-08-07T20:02:52.159Z,5.53
2022-08-07T20:05:28.195Z,2.77
2022-08-07T20:08:03.105Z,5.30
2022-08-07T20:10:54.767Z,4.93
2022-08-07T20:13:38.526Z,2.30
2022-08-07T20:16:15.936Z,3.17
2022-08-07T20:19:04.378Z,3.30
2022-08-07T20:21:46.842Z,2.43
2022-08-07T20:24:22.103Z,6.83
2022-08-07T20:26:56.329Z,3.00
2022-08-07T20:29:48.003Z,2.47
2022-08-07T20:32:25.675Z,6.73
2022-08-07T20:34:58.478Z,7.23
2022-08-07T20:37:37.083Z,7.93
2022-08-07T20:40:31.368Z,7.27
2022-08-07T20:43:09.460Z,7.47
2022-08-07T20:46:24.447Z,5.53
2022-08-07T20:48:38.174Z,4.23
2022-08-07T20:51:11.747Z,5.30
2022-08-07T20:54:02.882Z,5.20
2022-08-07T20:56:40.785Z,3.57
2022-08-07T21:00:04.861Z,4.70
2022-08-07T21:02:35.818Z,5.30
2022-08-07T21:05:16.553Z,5.00
2022-08-07T21:07:51.075Z,7.87
2022-08-07T21:10:31.427Z,8.47
2022-08-07T21:13:06.547Z,6.67
2022-08-07T21:15:58.082Z,7.20
2022-08-07T21:18:34.234Z,7.90
2022-08-07T21:21:05.044Z,6.53
2022-08-07T21:23:50.582Z,4.50
2022-08-07T21:26:42.972Z,4.47
2022-08-07T21:29:19.220Z,3.77
2022-08-07T21:32:47.114Z,3.67
2022-08-07T21:35:03.825Z,5.50
2022-08-07T21:37:59.518Z,4.30
2022-08-07T21:40:41.166Z,4.67
2022-08-07T21:43:14.911Z,4.57
2022-08-07T21:46:10.420Z,4.53
2022-08-07T21:48:55.896Z,6.73
2022-08-07T21:51:51.070Z,5.27
2022-08-07T21:54:30.786Z,3.97
2022-08-07T21:57:31.505Z,20.67
2022-08-07T22:00:22.299Z,10.33
2022-08-07T22:03:03.497Z,38.53
2022-08-07T22:05:49.724Z,28.07
2022-08-07T22:08:23.255Z,9.30
2022-08-07T22:11:01.684Z,10.13
2022-08-07T22:13:52.740Z,10.97
2022-08-07T22:16:39.161Z,22.03
2022-08-07T22:19:29.342Z,19.03
2022-08-07T22:22:20.755Z,7.60
2022-08-07T22:25:08.430Z,6.33
2022-08-07T22:28:07.926Z,10.83
2022-08-07T22:30:53.086Z,8.53
2022-08-07T22:33:53.306Z,10.03
2022-08-07T22:36:48.604Z,10.27
2022-08-07T22:39:53.024Z,8.97
2022-08-07T22:42:54.123Z,9.30
2022-08-07T22:46:21.715Z,6.63
2022-08-07T22:48:56.194Z,7.07
2022-08-07T22:51:58.052Z,4.70
2022-08-07T22:55:17.086Z,3.60
2022-08-07T22:58:34.170Z,5.63
2022-08-07T23:01:49.764Z,4.43
2022-08-07T23:04:56.831Z,4.53
2022-08-07T23:07:49.120Z,5.80
2022-08-07T23:10:41.989Z,5.03
2022-08-07T23:13:49.279Z,8.53
2022-08-07T23:16:55.903Z,5.70
2022-08-07T23:20:04.222Z,5.30
2022-08-07T23:22:52.304Z,4.27
2022-08-07T23:25:41.548Z,5.23
2022-08-07T23:28:44.314Z,5.23
2022-08-07T23:32:49.386Z,4.33
2022-08-07T23:34:50.824Z,5.97
2022-08-07T23:38:01.161Z,4.07
2022-08-07T23:40:49.193Z,5.53
2022-08-07T23:44:07.570Z,3.00
2022-08-07T23:47:13.306Z,3.70
2022-08-07T23:50:30.393Z,6.13
2022-08-07T23:53:17.108Z,5.73
2022-08-07T23:56:01.696Z,3.70
2022-08-07T23:58:45.665Z,5.40
